Time;durP1;ratioP1;P1;durP2;ratioP2;P2;SDS_P1;SDS_P2;PMS_P1;PMS_P2;Temp;Humidity;BMP_temperature;BMP_pressure;BME280_temperature;BME280_humidity;BME280_pressure;Samples;Min_cycle;Max_cycle;Signal;HPM_P1;HPM_P2
2023/07/03 00:00:58;;;;;;;10.00;5.47;;;;;;;15.52;56.81;100169.09;5025816;28;20054;-57
2023/07/03 00:03:27;;;;;;;12.88;5.97;;;;;;;15.48;56.98;100167.69;5025091;28;20049;-57
2023/07/03 00:05:54;;;;;;;12.43;5.50;;;;;;;15.44;56.93;100172.44;5023761;28;20481;-54
2023/07/03 00:08:22;;;;;;;8.38;5.10;;;;;;;15.42;57.21;100173.53;5007188;28;20128;-55
2023/07/03 00:10:49;;;;;;;12.30;5.50;;;;;;;15.39;57.31;100173.78;5030923;28;20103;-53
2023/07/03 00:13:16;;;;;;;15.30;5.85;;;;;;;15.37;57.56;100173.09;5027410;28;20176;-54
2023/07/03 00:15:43;;;;;;;12.23;5.88;;;;;;;15.33;57.83;100163.72;5028267;28;20128;-53
2023/07/03 00:18:11;;;;;;;14.23;6.43;;;;;;;15.29;57.90;100168.44;5027090;28;20065;-54
2023/07/03 00:20:39;;;;;;;9.75;5.40;;;;;;;15.23;58.35;100163.66;5024937;28;20081;-55
2023/07/03 00:23:06;;;;;;;12.55;5.95;;;;;;;15.18;58.69;100166.72;5026460;28;20053;-52
2023/07/03 00:25:34;;;;;;;14.48;6.22;;;;;;;15.14;58.68;100161.81;5027400;28;20160;-53
2023/07/03 00:28:01;;;;;;;9.88;5.45;;;;;;;15.11;59.07;100160.25;5027549;28;20045;-52
2023/07/03 00:30:28;;;;;;;13.15;6.57;;;;;;;15.10;59.41;100160.38;5025795;28;20057;-52
2023/07/03 00:32:55;;;;;;;13.82;6.43;;;;;;;15.07;59.75;100166.78;5027304;28;20081;-56
2023/07/03 00:35:23;;;;;;;15.35;5.72;;;;;;;15.04;60.01;100164.41;5024507;28;20900;-55
2023/07/03 00:37:50;;;;;;;12.73;5.65;;;;;;;15.05;59.97;100157.28;5027867;28;20104;-55
2023/07/03 00:40:18;;;;;;;10.48;5.72;;;;;;;15.01;59.96;100148.75;5027377;28;20635;-54
2023/07/03 00:42:45;;;;;;;11.25;5.82;;;;;;;14.97;59.93;100152.63;5023220;28;20511;-54
2023/07/03 00:45:13;;;;;;;12.80;6.53;;;;;;;14.93;60.35;100159.16;4994850;28;20137;-51
2023/07/03 00:47:40;;;;;;;13.30;6.70;;;;;;;14.89;60.71;100153.25;5026313;28;20133;-56
2023/07/03 00:50:09;;;;;;;10.38;6.05;;;;;;;14.86;60.83;100142.94;5027763;28;20252;-55
2023/07/03 00:52:38;;;;;;;10.68;5.80;;;;;;;14.83;60.70;100151.13;5026503;28;20069;-58
2023/07/03 00:55:06;;;;;;;13.98;5.57;;;;;;;14.81;60.95;100149.56;5026424;28;20087;-53
2023/07/03 00:57:33;;;;;;;14.73;6.10;;;;;;;14.79;61.07;100144.41;5009895;28;20148;-51
2023/07/03 01:00:01;;;;;;;12.52;5.57;;;;;;;14.75;61.72;100137.69;5028388;28;20136;-52
2023/07/03 01:02:35;;;;;;;11.60;6.13;;;;;;;14.71;62.00;100138.06;5025762;28;20478;-56
2023/07/03 01:05:13;;;;;;;12.05;6.55;;;;;;;14.66;62.07;100136.66;5005240;28;20902;-56
2023/07/03 01:07:41;;;;;;;11.90;5.65;;;;;;;14.65;61.92;100139.44;5026456;28;20599;-53
2023/07/03 01:10:18;;;;;;;10.00;6.10;;;;;;;14.62;62.10;100143.16;5007690;28;20164;-56
2023/07/03 01:12:49;;;;;;;13.95;6.43;;;;;;;14.60;62.43;100137.19;5010671;28;20070;-53
2023/07/03 01:15:21;;;;;;;14.52;6.03;;;;;;;14.58;62.42;100139.09;5027584;28;20053;-54
2023/07/03 01:17:50;;;;;;;13.90;6.03;;;;;;;14.55;62.30;100136.72;5010627;28;20128;-53
2023/07/03 01:20:19;;;;;;;11.95;6.78;;;;;;;14.54;62.72;100127.06;5010104;28;20510;-57
2023/07/03 01:22:52;;;;;;;12.73;6.10;;;;;;;14.53;63.04;100132.50;5007010;28;20067;-55
2023/07/03 01:25:21;;;;;;;17.35;7.32;;;;;;;14.54;63.42;100129.72;5000911;28;20060;-57
2023/07/03 01:27:50;;;;;;;14.05;6.75;;;;;;;14.55;63.37;100131.44;5012177;28;20053;-51
2023/07/03 01:30:21;;;;;;;12.80;7.07;;;;;;;14.56;63.41;100122.50;5011403;28;20129;-51
2023/07/03 01:32:51;;;;;;;12.25;6.35;;;;;;;14.58;63.57;100125.00;5010053;28;20063;-53
2023/07/03 01:35:19;;;;;;;15.80;6.88;;;;;;;14.60;63.39;100120.44;5006471;28;20057;-58
2023/07/03 01:37:49;;;;;;;17.63;7.32;;;;;;;14.63;63.65;100120.16;5014299;28;20059;-57
2023/07/03 01:40:20;;;;;;;13.55;6.10;;;;;;;14.64;63.53;100116.56;5010949;28;20537;-56
2023/07/03 01:42:48;;;;;;;14.32;6.30;;;;;;;14.66;63.78;100118.09;5015158;28;20473;-57
2023/07/03 01:45:15;;;;;;;12.00;6.38;;;;;;;14.68;63.63;100110.06;5015582;28;20064;-57
2023/07/03 01:47:42;;;;;;;14.50;6.70;;;;;;;14.68;63.62;100121.47;5014611;28;20751;-54
2023/07/03 01:50:14;;;;;;;13.63;6.75;;;;;;;14.72;63.55;100111.44;5024885;28;20057;-55
2023/07/03 01:52:50;;;;;;;13.95;7.32;;;;;;;14.74;63.75;100120.13;5024077;28;20058;-55
2023/07/03 01:55:20;;;;;;;14.10;6.68;;;;;;;14.74;63.75;100117.47;5027500;28;20099;-57
2023/07/03 01:57:56;;;;;;;12.02;6.75;;;;;;;14.75;63.53;100121.78;5029223;28;20049;-58
2023/07/03 02:00:43;;;;;;;12.85;6.15;;;;;;;14.77;64.26;100114.56;5013334;28;20053;-57
2023/07/03 02:03:44;;;;;;;14.93;6.90;;;;;;;14.77;64.24;100113.72;5010657;28;20073;-53
2023/07/03 02:06:26;;;;;;;14.40;7.00;;;;;;;14.77;64.28;100103.09;5010065;28;20088;-55
2023/07/03 02:08:58;;;;;;;10.90;6.30;;;;;;;14.77;64.42;100108.41;5004197;28;20041;-55
2023/07/03 02:11:31;;;;;;;16.48;8.02;;;;;;;14.76;64.71;100112.88;5031252;28;20049;-56
2023/07/03 02:13:59;;;;;;;15.45;6.78;;;;;;;14.75;64.38;100105.06;5028142;28;20057;-55
2023/07/03 02:16:29;;;;;;;18.70;7.38;;;;;;;14.75;64.54;100105.06;5023345;28;20212;-54
2023/07/03 02:18:58;;;;;;;12.48;6.35;;;;;;;14.75;64.66;100099.75;5023810;28;20409;-52
2023/07/03 02:21:27;;;;;;;14.90;7.35;;;;;;;14.76;64.81;100119.97;5022134;28;20057;-57
2023/07/03 02:23:54;;;;;;;23.00;7.60;;;;;;;14.76;64.54;100104.91;5027151;28;20246;-54
2023/07/03 02:26:21;;;;;;;16.23;7.53;;;;;;;14.77;64.93;100108.41;5026773;28;20136;-54
2023/07/03 02:28:48;;;;;;;15.55;6.97;;;;;;;14.78;65.24;100116.25;5027743;28;20053;-51
2023/07/03 02:31:16;;;;;;;14.77;6.90;;;;;;;14.81;65.23;100110.66;5027755;28;20045;-57
2023/07/03 02:33:43;;;;;;;14.65;6.28;;;;;;;14.81;65.31;100115.97;5010177;28;20053;-56
2023/07/03 02:36:10;;;;;;;19.50;6.55;;;;;;;14.82;65.22;100109.72;5026917;28;20077;-54
2023/07/03 02:38:37;;;;;;;13.98;7.05;;;;;;;14.81;65.24;100108.00;5025872;28;20811;-56
2023/07/03 02:41:05;;;;;;;13.60;7.20;;;;;;;14.81;65.39;100110.66;5022713;28;20148;-54
2023/07/03 02:43:32;;;;;;;14.32;6.50;;;;;;;14.81;65.41;100117.78;5025496;28;20132;-53
2023/07/03 02:46:03;;;;;;;15.43;6.43;;;;;;;14.81;65.26;100104.53;5024971;28;20493;-51
2023/07/03 02:48:31;;;;;;;11.48;6.47;;;;;;;14.78;65.66;100110.94;5005099;28;20081;-58
2023/07/03 02:50:58;;;;;;;14.85;6.32;;;;;;;14.78;65.57;100105.66;5019761;28;20136;-54
2023/07/03 02:53:25;;;;;;;14.73;6.75;;;;;;;14.76;65.74;100096.97;5023501;28;20057;-57
2023/07/03 02:55:55;;;;;;;9.50;6.22;;;;;;;14.76;65.79;100102.28;4999435;28;20045;-57
2023/07/03 02:58:24;;;;;;;10.52;6.30;;;;;;;14.77;65.83;100097.81;5024690;28;20054;-55
2023/07/03 03:00:53;;;;;;;16.05;7.55;;;;;;;14.76;66.43;100094.31;5024484;28;20049;-55
2023/07/03 03:03:21;;;;;;;14.52;7.05;;;;;;;14.78;66.18;100094.22;5026060;28;20969;-54
2023/07/03 03:05:48;;;;;;;14.40;7.50;;;;;;;14.78;66.12;100097.69;5025191;28;20485;-57
2023/07/03 03:08:16;;;;;;;12.40;6.68;;;;;;;14.78;66.23;100092.41;5022863;28;20058;-56
2023/07/03 03:10:43;;;;;;;13.55;6.88;;;;;;;14.72;66.73;100097.38;5021082;28;20053;-51
2023/07/03 03:13:10;;;;;;;11.55;6.72;;;;;;;14.75;66.52;100092.66;5025921;28;20102;-54
2023/07/03 03:15:37;;;;;;;11.88;6.22;;;;;;;14.78;66.75;100103.00;5023804;28;20132;-56
2023/07/03 03:18:05;;;;;;;14.55;7.25;;;;;;;14.77;66.83;100098.69;5027657;28;20237;-54
2023/07/03 03:20:32;;;;;;;16.38;7.28;;;;;;;14.77;66.97;100096.03;5012596;28;20052;-58
2023/07/03 03:22:59;;;;;;;13.55;6.88;;;;;;;14.79;67.11;100101.19;5009472;28;20140;-55
2023/07/03 03:25:27;;;;;;;12.52;6.93;;;;;;;14.79;67.05;100101.19;5028343;28;20184;-55
2023/07/03 03:27:55;;;;;;;13.77;7.22;;;;;;;14.84;66.73;100093.69;5031569;28;20144;-51
2023/07/03 03:30:22;;;;;;;13.98;6.47;;;;;;;14.87;66.72;100101.38;5030287;28;20046;-51
2023/07/03 03:32:50;;;;;;;13.43;6.82;;;;;;;14.84;66.32;100096.31;5007061;28;20053;-57
2023/07/03 03:35:17;;;;;;;12.38;7.30;;;;;;;14.88;66.54;100090.63;5009166;28;20053;-55
2023/07/03 03:37:44;;;;;;;14.30;7.07;;;;;;;14.91;66.44;100087.72;5009250;28;20160;-51
2023/07/03 03:40:11;;;;;;;12.60;5.68;;;;;;;14.95;66.70;100088.31;5025348;28;20129;-53
2023/07/03 03:42:39;;;;;;;14.77;6.65;;;;;;;14.96;65.81;100084.69;5010818;28;20084;-55
2023/07/03 03:45:06;;;;;;;15.52;6.60;;;;;;;15.02;65.37;100085.97;5028068;28;20401;-51
2023/07/03 03:47:33;;;;;;;14.52;6.55;;;;;;;15.05;65.61;100097.16;5024382;28;20132;-53
2023/07/03 03:50:01;;;;;;;11.75;6.68;;;;;;;15.08;65.34;100091.56;5024826;28;20389;-57
2023/07/03 03:52:28;;;;;;;15.05;6.70;;;;;;;15.15;65.17;100089.25;5059888;22;20113;-49
2023/07/03 03:54:55;;;;;;;18.27;6.75;;;;;;;15.18;64.83;100087.16;5050190;28;20063;-52
2023/07/03 03:57:22;;;;;;;12.35;6.10;;;;;;;15.23;64.61;100088.59;5046610;28;20568;-48
2023/07/03 03:59:50;;;;;;;13.32;6.80;;;;;;;15.29;64.79;100088.03;5042048;28;20128;-51
2023/07/03 04:02:17;;;;;;;12.48;6.13;;;;;;;15.33;64.41;100095.59;5042221;28;20155;-50
2023/07/03 04:04:45;;;;;;;13.70;7.57;;;;;;;15.37;64.09;100096.16;5028258;28;20043;-49
2023/07/03 04:07:12;;;;;;;15.07;6.72;;;;;;;15.40;64.08;100093.22;5050784;28;20139;-53
2023/07/03 04:09:40;;;;;;;12.13;6.57;;;;;;;15.46;64.36;100084.75;5026715;28;20057;-52
2023/07/03 04:12:07;;;;;;;16.20;6.75;;;;;;;15.49;64.26;100086.28;5040752;28;20137;-51
2023/07/03 04:14:34;;;;;;;15.77;5.82;;;;;;;15.54;64.43;100079.63;5029893;28;20063;-52
2023/07/03 04:17:02;;;;;;;10.70;6.28;;;;;;;15.59;64.08;100084.50;5045577;28;20049;-51
2023/07/03 04:19:30;;;;;;;12.70;6.82;;;;;;;15.60;63.81;100075.56;5026051;28;20423;-49
2023/07/03 04:21:58;;;;;;;13.50;6.35;;;;;;;15.65;64.27;100073.38;5017260;28;20452;-48
2023/07/03 04:24:25;;;;;;;11.52;5.88;;;;;;;15.72;63.86;100074.53;5039222;28;20103;-54
2023/07/03 04:26:54;;;;;;;13.30;6.45;;;;;;;15.80;63.93;100082.63;5038070;28;20076;-50
2023/07/03 04:29:21;;;;;;;14.23;6.95;;;;;;;15.87;63.67;100080.28;5038912;28;20152;-50
2023/07/03 04:31:49;;;;;;;12.80;6.50;;;;;;;15.89;63.59;100076.47;5040784;28;20149;-55
2023/07/03 04:34:16;;;;;;;13.75;6.68;;;;;;;15.94;63.57;100082.25;5046455;28;20084;-53
2023/07/03 04:36:47;;;;;;;12.32;6.43;;;;;;;15.99;63.27;100076.53;5046535;28;20927;-51
2023/07/03 04:39:14;;;;;;;12.38;6.40;;;;;;;15.99;63.50;100075.69;5026797;28;20047;-48
2023/07/03 04:41:42;;;;;;;17.90;8.00;;;;;;;15.98;63.35;100080.13;5046100;28;20095;-51
2023/07/03 04:44:12;;;;;;;14.32;5.88;;;;;;;15.99;63.85;100083.66;5047449;28;20053;-49
2023/07/03 04:46:39;;;;;;;14.85;6.45;;;;;;;16.06;63.44;100074.97;5039839;28;20057;-49
2023/07/03 04:49:07;;;;;;;16.95;7.47;;;;;;;16.11;63.68;100071.91;5020673;28;20395;-53
2023/07/03 04:51:35;;;;;;;16.73;7.22;;;;;;;16.16;63.57;100073.16;5028154;28;20045;-51
2023/07/03 04:54:03;;;;;;;16.60;8.18;;;;;;;16.09;63.94;100074.69;5010743;28;20054;-51
2023/07/03 04:56:33;;;;;;;16.70;6.57;;;;;;;16.18;63.72;100073.03;5041340;28;20052;-53
2023/07/03 04:59:00;;;;;;;17.02;8.27;;;;;;;16.25;63.72;100076.78;5028742;28;20068;-53
2023/07/03 05:01:29;;;;;;;18.33;7.05;;;;;;;16.27;62.87;100074.00;5053560;28;20059;-55
2023/07/03 05:03:57;;;;;;;15.95;6.70;;;;;;;16.29;62.65;100074.69;5049263;28;20148;-51
2023/07/03 05:06:25;;;;;;;12.48;7.22;;;;;;;16.32;62.68;100077.06;5046049;28;20100;-52
2023/07/03 05:08:53;;;;;;;15.88;7.07;;;;;;;16.40;62.78;100069.25;5052693;28;20487;-49
2023/07/03 05:11:20;;;;;;;13.05;7.53;;;;;;;16.41;62.16;100065.59;5045746;28;20048;-55
2023/07/03 05:13:47;;;;;;;19.50;8.00;;;;;;;16.45;62.00;100069.66;5047024;28;20053;-53
2023/07/03 05:16:15;;;;;;;15.45;7.18;;;;;;;16.55;62.07;100061.66;5018237;28;20041;-49
2023/07/03 05:18:42;;;;;;;17.80;7.55;;;;;;;16.68;62.06;100071.00;5046350;28;20088;-47
2023/07/03 05:21:10;;;;;;;12.32;6.97;;;;;;;16.59;61.45;100071.88;5041165;28;20041;-48
2023/07/03 05:23:38;;;;;;;18.27;8.00;;;;;;;16.69;61.72;100064.72;5045773;28;20061;-52
2023/07/03 05:26:05;;;;;;;13.82;7.00;;;;;;;16.82;61.26;100064.44;5047277;28;20048;-50
2023/07/03 05:28:33;;;;;;;15.88;7.47;;;;;;;16.97;60.96;100070.13;5049612;28;20112;-49
2023/07/03 05:31:01;;;;;;;16.42;7.00;;;;;;;17.08;60.73;100069.13;5044974;28;20128;-49
2023/07/03 05:33:29;;;;;;;14.40;7.47;;;;;;;17.09;60.38;100076.94;5041458;28;20088;-51
2023/07/03 05:36:00;;;;;;;14.85;7.43;;;;;;;17.16;59.70;100074.56;5049035;28;20059;-49
2023/07/03 05:38:28;;;;;;;14.05;7.05;;;;;;;17.17;59.78;100069.09;5054709;28;20057;-53
2023/07/03 05:40:55;;;;;;;16.10;7.60;;;;;;;17.25;59.42;100078.16;5045037;28;20116;-52
2023/07/03 05:43:23;;;;;;;15.00;7.28;;;;;;;17.19;59.82;100077.72;5027101;28;20099;-63
2023/07/03 05:45:50;;;;;;;13.35;6.95;;;;;;;17.24;58.97;100079.97;5019692;28;20049;-64
2023/07/03 05:48:18;;;;;;;17.27;6.97;;;;;;;17.33;59.51;100075.59;5044777;28;20033;-66
2023/07/03 05:50:45;;;;;;;17.70;6.95;;;;;;;17.49;58.55;100075.78;5025585;28;20044;-62
2023/07/03 05:53:13;;;;;;;17.67;7.35;;;;;;;17.43;57.90;100076.41;5002513;28;21040;-64
2023/07/03 05:55:40;;;;;;;15.20;7.07;;;;;;;17.38;57.70;100074.19;5052471;28;20175;-65
2023/07/03 05:58:07;;;;;;;15.05;7.57;;;;;;;17.45;58.22;100083.22;5059041;28;20486;-65
2023/07/03 06:00:36;;;;;;;14.48;7.78;;;;;;;17.48;58.00;100071.47;5048151;28;20174;-64
2023/07/03 06:03:05;;;;;;;16.92;6.85;;;;;;;17.42;58.03;100080.03;5031164;28;20045;-64
2023/07/03 06:05:32;;;;;;;15.73;6.80;;;;;;;17.33;57.80;100075.59;5051360;28;20052;-52
2023/07/03 06:08:00;;;;;;;14.25;6.30;;;;;;;17.33;57.20;100088.88;5047457;28;20048;-58
2023/07/03 06:10:27;;;;;;;19.92;6.38;;;;;;;17.32;56.86;100092.53;5051284;28;20049;-57
2023/07/03 06:12:55;;;;;;;19.98;7.68;;;;;;;17.39;57.15;100088.31;5043587;28;20053;-58
2023/07/03 06:15:22;;;;;;;23.35;7.13;;;;;;;17.37;56.38;100098.25;5036315;28;20110;-57
2023/07/03 06:17:50;;;;;;;19.77;6.88;;;;;;;17.55;56.38;100095.66;5047288;28;20056;-56
2023/07/03 06:20:17;;;;;;;15.65;6.90;;;;;;;17.46;55.36;100108.00;5041597;28;20045;-56
2023/07/03 06:22:45;;;;;;;14.55;6.80;;;;;;;17.61;55.53;100097.72;5047111;28;20067;-56
2023/07/03 06:25:12;;;;;;;19.10;7.65;;;;;;;17.87;55.34;100092.53;5039924;28;20087;-57
2023/07/03 06:27:40;;;;;;;15.07;6.45;;;;;;;18.10;54.87;100096.47;5028596;28;20045;-59
2023/07/03 06:30:08;;;;;;;12.65;6.40;;;;;;;18.05;54.50;100089.91;5043697;28;20160;-57
2023/07/03 06:32:36;;;;;;;13.38;7.30;;;;;;;18.09;54.97;100091.28;5038896;28;20128;-56
2023/07/03 06:35:04;;;;;;;19.25;7.28;;;;;;;18.08;55.41;100095.75;5046875;28;20553;-57
2023/07/03 06:37:34;;;;;;;16.42;7.03;;;;;;;18.16;54.98;100098.50;5050004;28;20080;-52
2023/07/03 06:40:05;;;;;;;16.33;6.78;;;;;;;18.16;54.42;100095.00;5043644;28;20116;-58
2023/07/03 06:42:32;;;;;;;19.77;6.40;;;;;;;18.33;54.17;100104.00;5031670;28;20068;-59
2023/07/03 06:44:59;;;;;;;18.40;6.88;;;;;;;18.55;53.93;100105.31;5045136;28;20855;-55
2023/07/03 06:47:26;;;;;;;16.92;6.30;;;;;;;18.45;53.88;100124.91;5044323;28;20643;-58
2023/07/03 06:49:54;;;;;;;27.95;7.00;;;;;;;18.42;54.23;100103.91;5046080;28;20148;-58
2023/07/03 06:52:21;;;;;;;17.02;7.03;;;;;;;18.53;54.40;100116.16;5049362;28;20140;-57
2023/07/03 06:54:48;;;;;;;19.63;7.05;;;;;;;18.54;54.43;100112.50;5047894;28;20056;-57
2023/07/03 06:57:15;;;;;;;19.23;6.85;;;;;;;18.23;54.01;100120.88;5048468;28;20164;-59
2023/07/03 06:59:43;;;;;;;14.43;6.07;;;;;;;18.29;54.02;100111.47;5045585;28;20124;-55
2023/07/03 07:02:10;;;;;;;16.63;6.63;;;;;;;18.27;54.39;100115.25;5031926;28;20045;-57
2023/07/03 07:04:37;;;;;;;17.23;6.68;;;;;;;18.33;54.77;100110.16;5045264;28;20148;-54
2023/07/03 07:07:05;;;;;;;15.25;6.82;;;;;;;18.46;54.98;100123.06;5047055;28;20153;-57
2023/07/03 07:13:45;;;;;;;14.05;5.95;;;;;;;18.80;53.08;100111.72;4971520;28;20455;-58
2023/07/03 07:16:26;;;;;;;17.60;6.55;;;;;;;18.52;53.45;100106.50;4977336;28;20145;-56
2023/07/03 07:18:56;;;;;;;16.15;6.78;;;;;;;18.53;53.86;100108.16;4990291;28;20042;-56
2023/07/03 07:21:23;;;;;;;17.63;6.47;;;;;;;18.52;54.10;100106.50;4989537;28;20411;-57
2023/07/03 07:23:53;;;;;;;17.67;6.22;;;;;;;18.41;54.17;100110.22;4980223;28;20150;-55
2023/07/03 07:26:21;;;;;;;15.00;6.47;;;;;;;18.55;54.44;100114.19;4987262;28;20625;-57
2023/07/03 07:28:48;;;;;;;12.88;6.03;;;;;;;18.62;54.09;100117.06;4982120;28;20138;-56
2023/07/03 07:31:24;;;;;;;18.63;7.00;;;;;;;18.61;53.78;100123.38;4980502;28;20419;-57
2023/07/03 07:33:52;;;;;;;19.08;6.10;;;;;;;18.81;53.58;100124.91;4985290;28;20078;-54
2023/07/03 07:36:23;;;;;;;20.77;6.38;;;;;;;18.68;52.48;100122.59;4986595;28;20494;-54
2023/07/03 07:38:51;;;;;;;21.20;6.47;;;;;;;18.78;52.95;100114.56;4982774;28;20117;-57
2023/07/03 07:41:24;;;;;;;18.38;6.60;;;;;;;18.76;53.42;100126.38;4981563;28;20052;-58
2023/07/03 07:43:54;;;;;;;19.48;5.70;;;;;;;19.04;52.73;100114.53;4981478;28;20054;-54
2023/07/03 07:46:26;;;;;;;13.90;5.97;;;;;;;19.33;52.73;100129.41;4967636;28;20133;-54
2023/07/03 07:48:53;;;;;;;16.95;6.03;;;;;;;19.23;52.04;100125.03;4986180;28;20587;-56
2023/07/03 07:51:21;;;;;;;16.77;6.25;;;;;;;19.10;51.94;100134.44;4968697;28;20053;-54
2023/07/03 07:53:48;;;;;;;19.73;6.45;;;;;;;19.03;52.27;100128.06;4969204;28;20137;-57
2023/07/03 07:56:16;;;;;;;19.52;6.18;;;;;;;19.04;52.80;100135.06;4971532;28;20669;-57
2023/07/03 07:58:43;;;;;;;15.07;5.85;;;;;;;18.91;52.86;100130.13;4983450;28;20058;-53
2023/07/03 08:01:11;;;;;;;15.52;6.90;;;;;;;19.07;52.21;100124.06;4983792;28;20078;-55
2023/07/03 08:03:39;;;;;;;14.60;5.88;;;;;;;19.41;51.18;100153.47;4987959;28;20129;-58
2023/07/03 08:06:08;;;;;;;14.35;6.45;;;;;;;19.32;51.36;100133.91;4988559;28;20046;-54
2023/07/03 08:08:35;;;;;;;12.35;6.20;;;;;;;19.19;50.98;100133.50;4980216;28;20058;-58
2023/07/03 08:11:04;;;;;;;12.52;5.82;;;;;;;19.14;51.40;100125.13;4983369;28;20149;-57
2023/07/03 08:13:33;;;;;;;16.83;6.63;;;;;;;19.05;51.38;100147.38;4982276;28;20142;-56
2023/07/03 08:16:01;;;;;;;18.52;5.75;;;;;;;19.24;51.25;100123.19;4980319;28;20138;-57
2023/07/03 08:18:28;;;;;;;12.45;5.97;;;;;;;19.68;51.28;100123.09;4967408;28;20054;-58
2023/07/03 08:20:55;;;;;;;17.92;6.18;;;;;;;19.58;50.08;100133.84;4986326;28;20051;-52
2023/07/03 08:23:23;;;;;;;16.83;5.47;;;;;;;19.42;49.61;100125.78;4977936;28;20099;-56
2023/07/03 08:25:53;;;;;;;15.57;5.88;;;;;;;19.63;48.48;100128.91;4983416;28;20053;-56
2023/07/03 08:28:21;;;;;;;18.33;5.80;;;;;;;19.63;48.83;100122.72;4985982;28;20057;-56
2023/07/03 08:30:49;;;;;;;11.43;4.72;;;;;;;19.76;48.99;100127.59;4983467;28;20042;-54
2023/07/03 08:33:16;;;;;;;13.82;5.90;;;;;;;19.86;48.21;100142.50;4984156;28;20074;-58
2023/07/03 08:35:43;;;;;;;21.33;5.70;;;;;;;19.56;49.85;100121.66;4981031;28;20053;-56
2023/07/03 08:38:14;;;;;;;12.43;5.80;;;;;;;19.48;49.64;100135.81;4989404;28;20030;-55
2023/07/03 08:40:42;;;;;;;17.63;5.60;;;;;;;19.48;49.74;100133.13;4983851;28;20054;-59
2023/07/03 08:43:16;;;;;;;13.98;5.78;;;;;;;19.34;49.77;100121.22;4982775;28;20061;-58
2023/07/03 08:45:45;;;;;;;18.85;6.13;;;;;;;19.32;47.20;100138.38;4967396;28;20117;-56
2023/07/03 08:48:16;;;;;;;17.88;5.78;;;;;;;19.40;48.85;100125.91;4966315;28;20507;-55
2023/07/03 08:50:49;;;;;;;16.88;6.45;;;;;;;19.44;49.22;100115.75;4956570;28;20116;-55
2023/07/03 08:53:20;;;;;;;13.00;5.38;;;;;;;19.74;48.58;100133.13;4958961;28;20082;-55
2023/07/03 08:56:03;;;;;;;12.90;5.20;;;;;;;19.68;48.62;100123.09;4946255;28;20034;-58
2023/07/03 08:58:31;;;;;;;23.33;6.15;;;;;;;19.87;48.04;100135.34;4967704;28;20113;-55
2023/07/03 09:01:20;;;;;;;15.38;5.10;;;;;;;19.83;47.07;100125.97;4983758;28;20109;-58
2023/07/03 09:04:11;;;;;;;14.55;5.57;;;;;;;19.66;47.02;100141.91;4983131;28;20078;-59
2023/07/03 09:06:47;;;;;;;15.18;4.85;;;;;;;19.65;48.06;100134.09;4981137;28;20515;-58
2023/07/03 09:09:23;;;;;;;12.90;5.28;;;;;;;20.13;47.05;100133.41;4984007;28;20531;-55
2023/07/03 09:12:10;;;;;;;14.32;5.30;;;;;;;20.06;45.04;100136.88;4961582;28;20050;-57
2023/07/03 09:14:42;;;;;;;16.58;5.75;;;;;;;19.84;45.86;100146.34;4963191;28;20146;-59
2023/07/03 09:17:11;;;;;;;12.45;5.22;;;;;;;19.98;45.51;100135.00;4984222;28;20135;-55
2023/07/03 09:19:42;;;;;;;14.10;5.70;;;;;;;20.30;44.82;100128.91;4966699;28;20092;-55
2023/07/03 09:22:16;;;;;;;11.70;4.47;;;;;;;20.61;43.37;100129.13;4982260;28;20137;-55
2023/07/03 09:24:44;;;;;;;10.70;5.45;;;;;;;20.65;41.56;100146.50;4963365;28;20157;-58
2023/07/03 09:27:17;;;;;;;12.55;4.38;;;;;;;20.44;41.06;100148.78;4967680;28;20090;-54
2023/07/03 09:29:45;;;;;;;12.43;4.15;;;;;;;20.83;40.26;100149.00;4960368;28;20132;-57
2023/07/03 09:32:23;;;;;;;14.23;4.20;;;;;;;20.65;39.25;100154.53;4982454;28;20050;-56
2023/07/03 09:35:13;;;;;;;14.35;4.03;;;;;;;20.74;39.21;100158.03;4981660;28;20105;-59
2023/07/03 09:38:01;;;;;;;10.05;3.75;;;;;;;20.53;38.98;100165.72;4987565;28;20443;-58
2023/07/03 09:40:32;;;;;;;13.95;4.25;;;;;;;20.48;39.10;100151.00;4979238;28;20492;-57
2023/07/03 09:43:01;;;;;;;15.77;4.78;;;;;;;20.21;40.60;100152.09;4979781;28;20078;-52
2023/07/03 09:45:33;;;;;;;11.73;4.25;;;;;;;20.42;39.86;100158.84;4983640;28;20260;-57
2023/07/03 09:48:02;;;;;;;13.63;4.82;;;;;;;20.66;39.85;100158.88;4980554;28;20046;-58
2023/07/03 09:50:36;;;;;;;17.42;4.38;;;;;;;20.92;37.78;100142.63;4985308;28;20528;-55
2023/07/03 09:53:05;;;;;;;10.00;4.07;;;;;;;21.06;37.72;100159.84;4997255;23;20137;-57
2023/07/03 09:55:36;;;;;;;9.40;3.83;;;;;;;20.85;37.83;100148.81;5003194;28;20399;-61
2023/07/03 09:58:24;;;;;;;13.50;4.90;;;;;;;20.90;37.95;100159.88;5005050;28;20148;-55
2023/07/03 10:00:55;;;;;;;11.68;3.85;;;;;;;20.94;37.23;100161.22;4999014;28;20181;-59
2023/07/03 10:03:28;;;;;;;10.48;4.07;;;;;;;21.35;37.06;100163.84;4981861;28;20050;-59
2023/07/03 10:06:12;;;;;;;10.38;3.95;;;;;;;21.93;36.17;100160.78;4980334;28;20050;-57
2023/07/03 10:08:45;;;;;;;10.57;3.42;;;;;;;21.68;36.21;100168.09;4985308;28;20053;-54
2023/07/03 10:11:18;;;;;;;9.55;4.13;;;;;;;21.64;37.30;100163.25;4983673;28;20057;-58
2023/07/03 10:13:47;;;;;;;15.98;3.88;;;;;;;21.40;37.55;100161.50;4980402;28;20043;-56
2023/07/03 10:16:15;;;;;;;10.23;4.32;;;;;;;21.64;37.16;100168.59;4985457;28;20140;-56
2023/07/03 10:18:46;;;;;;;10.27;4.53;;;;;;;21.23;36.85;100172.19;4988130;28;20082;-57
2023/07/03 10:21:16;;;;;;;8.98;3.55;;;;;;;21.43;37.38;100180.75;4987697;28;20142;-56
2023/07/03 10:23:44;;;;;;;10.30;4.45;;;;;;;21.43;37.55;100171.84;4981231;28;20053;-57
2023/07/03 10:26:34;;;;;;;11.50;3.60;;;;;;;21.26;37.10;100167.53;4978971;28;20123;-55
2023/07/03 10:29:06;;;;;;;14.55;3.75;;;;;;;21.01;37.31;100164.88;4968616;28;20522;-58
2023/07/03 10:31:49;;;;;;;16.00;4.22;;;;;;;20.95;37.70;100182.44;4996532;28;20562;-57
2023/07/03 10:34:22;;;;;;;9.73;3.65;;;;;;;21.03;38.42;100178.06;4978793;28;20105;-55
2023/07/03 10:36:55;;;;;;;14.27;4.30;;;;;;;20.88;38.72;100180.59;4976456;28;20051;-56
2023/07/03 10:39:34;;;;;;;7.93;3.50;;;;;;;21.10;38.05;100177.25;4984406;28;20145;-57
2023/07/03 10:42:04;;;;;;;12.55;3.92;;;;;;;21.30;37.80;100163.47;4982026;28;20081;-57
2023/07/03 10:44:36;;;;;;;16.70;3.88;;;;;;;21.73;37.67;100168.41;4979476;28;20055;-58
2023/07/03 10:47:21;;;;;;;11.38;3.25;;;;;;;22.29;37.73;100175.50;4974807;28;20206;-58
2023/07/03 10:49:49;;;;;;;11.23;3.58;;;;;;;22.49;36.79;100174.88;4977425;28;20053;-55
2023/07/03 10:52:30;;;;;;;9.73;3.53;;;;;;;22.55;35.21;100194.78;4981837;28;20050;-59
2023/07/03 10:55:10;;;;;;;9.82;3.40;;;;;;;22.21;35.42;100206.75;4978433;28;20078;-58
2023/07/03 10:57:55;;;;;;;12.68;3.65;;;;;;;21.90;36.42;100181.75;4996625;28;20121;-58
2023/07/03 11:00:46;;;;;;;11.98;3.60;;;;;;;22.19;36.20;100200.69;4976560;28;20047;-57
2023/07/03 11:03:33;;;;;;;9.35;3.88;;;;;;;21.94;36.10;100205.34;4984683;28;20682;-58
2023/07/03 11:06:16;;;;;;;10.27;3.08;;;;;;;22.47;35.46;100194.88;4981360;28;20470;-58
2023/07/03 11:08:48;;;;;;;13.60;3.38;;;;;;;22.36;35.54;100200.63;4981476;28;20550;-58
2023/07/03 11:11:36;;;;;;;11.30;3.50;;;;;;;22.43;36.00;100198.91;4974570;28;20166;-56
2023/07/03 11:14:17;;;;;;;11.20;4.20;;;;;;;22.10;36.15;100190.16;4974950;28;20560;-57
2023/07/03 11:17:08;;;;;;;10.82;3.80;;;;;;;21.82;36.74;100197.84;4981470;28;20627;-58
2023/07/03 11:20:17;;;;;;;12.73;3.10;;;;;;;21.76;37.14;100209.28;4980270;28;20129;-56
2023/07/03 11:23:03;;;;;;;11.88;3.28;;;;;;;21.57;37.57;100197.94;4984025;28;20081;-59
2023/07/03 11:25:40;;;;;;;14.45;3.67;;;;;;;21.39;38.19;100235.66;4981791;28;20141;-58
2023/07/03 11:28:43;;;;;;;9.80;3.15;;;;;;;21.35;38.16;100198.66;4982371;28;20134;-58
2023/07/03 11:31:11;;;;;;;16.85;3.78;;;;;;;21.75;38.06;100200.41;4986110;28;20586;-60
2023/07/03 11:33:38;;;;;;;12.68;3.80;;;;;;;21.57;37.38;100218.50;4980071;28;20093;-57
2023/07/03 11:36:43;;;;;;;12.10;3.30;;;;;;;21.58;37.92;100199.59;4986008;28;20035;-58